createdAt,value
2022-11-28T00:01:43.392Z,5.09
2022-11-28T00:04:11.368Z,5.02
2022-11-28T00:06:46.940Z,5.01
2022-11-28T00:09:15.105Z,5.05
2022-11-28T00:11:44.250Z,5.09
2022-11-28T00:14:16.134Z,5.09
2022-11-28T00:16:46.973Z,5.15
2022-11-28T00:19:14.448Z,5.15
2022-11-28T00:21:42.024Z,5.15
2022-11-28T00:24:14.878Z,5.21
2022-11-28T00:26:48.300Z,5.19
2022-11-28T00:29:18.490Z,5.12
2022-11-28T00:31:48.648Z,5.20
2022-11-28T00:34:16.020Z,5.23
2022-11-28T00:36:47.750Z,5.22
2022-11-28T00:39:16.270Z,5.17
2022-11-28T00:41:43.885Z,5.00
2022-11-28T00:44:14.007Z,5.08
2022-11-28T00:46:43.771Z,5.06
2022-11-28T00:49:10.979Z,5.16
2022-11-28T00:51:38.455Z,5.14
2022-11-28T00:54:08.067Z,5.14
2022-11-28T00:56:42.539Z,5.07
2022-11-28T00:59:15.123Z,4.97
2022-11-28T01:01:45.493Z,5.05
2022-11-28T01:04:15.111Z,5.08
2022-11-28T01:06:48.167Z,5.12
2022-11-28T01:09:23.613Z,5.24
2022-11-28T01:11:53.242Z,5.30
2022-11-28T01:14:24.097Z,5.23
2022-11-28T01:16:54.326Z,5.14
2022-11-28T01:19:23.302Z,5.14
2022-11-28T01:21:53.612Z,5.17
2022-11-28T01:24:22.152Z,5.14
2022-11-28T01:26:52.063Z,5.30
2022-11-28T01:29:19.868Z,5.20
2022-11-28T01:31:50.098Z,5.10
2022-11-28T01:34:17.269Z,5.06
2022-11-28T01:36:47.557Z,5.11
2022-11-28T01:39:14.700Z,5.10
2022-11-28T01:41:41.956Z,5.14
2022-11-28T01:44:12.094Z,5.10
2022-11-28T01:46:42.665Z,5.05
2022-11-28T01:49:17.882Z,5.03
2022-11-28T01:51:54.054Z,5.08
2022-11-28T01:54:26.370Z,4.93
2022-11-28T01:57:16.963Z,4.93
2022-11-28T02:00:08.701Z,4.98
2022-11-28T02:02:40.884Z,4.89
2022-11-28T02:05:12.770Z,5.05
2022-11-28T02:07:40.267Z,5.09
2022-11-28T02:10:12.253Z,5.08
2022-11-28T02:13:13.443Z,4.99
2022-11-28T02:15:53.051Z,4.87
2022-11-28T02:18:50.166Z,5.03
2022-11-28T02:21:50.182Z,5.20
2022-11-28T02:24:35.819Z,5.11
2022-11-28T02:27:17.918Z,5.04
2022-11-28T02:30:06.389Z,4.85
2022-11-28T02:32:57.857Z,4.86
2022-11-28T02:35:50.363Z,4.88
2022-11-28T02:38:34.383Z,4.93
2022-11-28T02:41:33.843Z,4.88
2022-11-28T02:44:19.693Z,4.83
2022-11-28T02:46:58.589Z,4.82
2022-11-28T02:49:58.921Z,4.89
2022-11-28T02:53:14.017Z,4.96
2022-11-28T02:55:43.375Z,5.05
2022-11-28T02:58:12.320Z,5.03
2022-11-28T03:00:45.874Z,5.00
2022-11-28T03:03:21.631Z,4.97
2022-11-28T03:06:18.917Z,4.96
2022-11-28T03:09:15.285Z,5.01
2022-11-28T03:12:03.156Z,4.96
2022-11-28T03:14:57.223Z,4.97
2022-11-28T03:18:11.332Z,4.96
2022-11-28T03:20:44.571Z,5.00
2022-11-28T03:23:33.492Z,4.88
2022-11-28T03:26:05.759Z,4.96
2022-11-28T03:28:45.809Z,4.88
2022-11-28T03:31:19.878Z,4.90
2022-11-28T03:33:53.898Z,4.90
2022-11-28T03:36:27.239Z,4.99
2022-11-28T03:39:09.097Z,4.96
2022-11-28T03:41:42.691Z,4.88
2022-11-28T03:44:33.120Z,4.99
2022-11-28T03:47:11.601Z,4.94
2022-11-28T03:49:55.226Z,4.95
2022-11-28T03:52:40.997Z,4.88
2022-11-28T03:55:25.959Z,4.97
2022-11-28T03:58:25.429Z,5.11
2022-11-28T04:01:26.859Z,4.99
2022-11-28T04:05:05.015Z,5.07
2022-11-28T04:08:07.136Z,4.95
2022-11-28T04:10:37.364Z,4.91
2022-11-28T04:13:18.350Z,4.75
2022-11-28T04:16:04.892Z,4.81
2022-11-28T04:18:54.273Z,4.81
2022-11-28T04:22:02.419Z,5.03
2022-11-28T04:24:42.237Z,4.78
2022-11-28T04:27:20.329Z,4.71
2022-11-28T04:29:53.499Z,4.57
2022-11-28T04:32:29.393Z,4.72
2022-11-28T04:35:05.737Z,4.85
2022-11-28T04:37:43.732Z,8.00
2022-11-28T04:40:13.272Z,8.89
2022-11-28T04:42:52.847Z,9.17
2022-11-28T04:45:40.559Z,9.71
2022-11-28T04:48:14.335Z,9.84
2022-11-28T04:51:11.796Z,10.23
2022-11-28T04:53:57.359Z,9.33
2022-11-28T04:56:39.208Z,6.79
2022-11-28T04:59:10.916Z,5.79
2022-11-28T05:01:44.124Z,6.50
2022-11-28T05:04:17.998Z,7.49
2022-11-28T05:07:01.634Z,6.01
2022-11-28T05:09:33.243Z,5.68
2022-11-28T05:12:01.761Z,5.29
2022-11-28T05:14:29.531Z,5.07
2022-11-28T05:17:00.971Z,5.04
2022-11-28T05:19:31.156Z,5.01
2022-11-28T05:21:59.925Z,4.64
2022-11-28T05:24:32.320Z,4.71
2022-11-28T05:27:05.752Z,4.76
2022-11-28T05:29:36.123Z,4.84
2022-11-28T05:32:09.882Z,4.61
2022-11-28T05:34:37.745Z,4.64
2022-11-28T05:37:11.208Z,4.70
2022-11-28T05:39:41.926Z,4.78
2022-11-28T05:42:15.127Z,4.89
2022-11-28T05:44:48.247Z,4.92
2022-11-28T05:47:19.942Z,4.88
2022-11-28T05:49:47.467Z,4.88
2022-11-28T05:52:18.844Z,4.85
2022-11-28T05:54:49.385Z,4.95
2022-11-28T05:57:19.769Z,4.94
2022-11-28T05:59:53.140Z,4.88
2022-11-28T06:02:25.964Z,4.95
2022-11-28T06:04:56.417Z,4.93
2022-11-28T06:07:31.782Z,4.90
2022-11-28T06:10:01.458Z,4.96
2022-11-28T06:12:35.321Z,5.05
2022-11-28T06:15:06.121Z,5.08
2022-11-28T06:17:39.238Z,4.91
2022-11-28T06:20:11.657Z,4.87
2022-11-28T06:22:47.007Z,4.79
2022-11-28T06:25:22.520Z,4.81
2022-11-28T06:27:52.466Z,4.64
2022-11-28T06:30:20.601Z,4.64
2022-11-28T06:32:51.605Z,4.62
2022-11-28T06:35:25.536Z,4.67
2022-11-28T06:37:57.336Z,4.55
2022-11-28T06:40:27.572Z,4.27
2022-11-28T06:42:58.705Z,4.47
2022-11-28T06:45:29.626Z,4.55
2022-11-28T06:48:03.472Z,4.31
2022-11-28T06:50:36.949Z,4.48
2022-11-28T06:53:07.585Z,4.69
2022-11-28T06:55:38.627Z,4.77
2022-11-28T06:58:09.662Z,4.78
2022-11-28T07:00:37.390Z,4.88
2022-11-28T07:03:07.808Z,4.77
2022-11-28T07:05:42.563Z,4.87
2022-11-28T07:08:20.224Z,4.64
2022-11-28T07:10:50.601Z,4.63
2022-11-28T07:13:20.619Z,4.82
2022-11-28T07:15:51.904Z,4.92
2022-11-28T07:18:19.124Z,4.90
2022-11-28T07:20:49.922Z,4.69
2022-11-28T07:23:19.957Z,4.76
2022-11-28T07:25:57.929Z,4.88
2022-11-28T07:28:30.657Z,4.84
2022-11-28T07:31:04.014Z,4.68
2022-11-28T07:33:31.812Z,4.83
2022-11-28T07:36:10.229Z,4.88
2022-11-28T07:41:39.464Z,4.58
2022-11-28T07:44:19.074Z,4.63
2022-11-28T07:46:53.236Z,4.69
2022-11-28T07:49:39.059Z,4.59
2022-11-28T07:52:25.245Z,4.63
2022-11-28T07:55:12.029Z,4.97
2022-11-28T07:57:57.583Z,4.80
2022-11-28T08:00:36.990Z,4.85
2022-11-28T08:03:13.483Z,5.03
2022-11-28T08:05:53.006Z,4.89
2022-11-28T08:11:30.183Z,4.84
2022-11-28T08:14:09.420Z,4.74
2022-11-28T08:17:01.921Z,4.67
2022-11-28T08:19:53.309Z,4.48
2022-11-28T08:22:32.863Z,4.35
2022-11-28T08:25:14.160Z,4.58
2022-11-28T08:27:45.159Z,4.52
2022-11-28T08:30:19.027Z,4.59
2022-11-28T08:32:50.288Z,4.62
2022-11-28T08:35:40.458Z,4.52
2022-11-28T08:38:17.965Z,4.60
2022-11-28T08:41:01.198Z,4.52
2022-11-28T08:43:38.497Z,4.55
2022-11-28T08:46:21.902Z,4.57
2022-11-28T08:51:48.709Z,4.58
2022-11-28T08:54:27.104Z,4.61
2022-11-28T08:57:08.331Z,4.71
2022-11-28T08:59:47.546Z,4.32
2022-11-28T09:02:25.642Z,4.39
2022-11-28T09:05:18.772Z,4.71
2022-11-28T09:07:49.686Z,4.62
2022-11-28T09:10:26.832Z,4.52
2022-11-28T09:13:16.342Z,4.48
2022-11-28T09:16:08.478Z,4.55
2022-11-28T09:18:42.753Z,4.52
2022-11-28T09:21:26.171Z,4.46
2022-11-28T09:24:06.143Z,4.51
2022-11-28T09:26:39.970Z,4.57
2022-11-28T09:29:31.814Z,4.63
2022-11-28T09:32:09.158Z,4.43
2022-11-28T09:34:46.138Z,4.56
2022-11-28T09:37:27.216Z,4.61
2022-11-28T09:40:15.945Z,4.81
2022-11-28T09:42:50.338Z,4.65
2022-11-28T09:45:26.537Z,4.68
2022-11-28T09:48:45.091Z,4.60
2022-11-28T09:51:42.725Z,4.64
2022-11-28T09:54:14.323Z,4.69
2022-11-28T09:56:47.953Z,4.48
2022-11-28T10:02:36.771Z,4.43
2022-11-28T10:08:50.871Z,4.54
2022-11-28T10:11:36.683Z,4.38
2022-11-28T10:14:48.665Z,4.57
2022-11-28T10:21:19.413Z,4.66
2022-11-28T10:23:52.664Z,4.72
2022-11-28T10:26:43.302Z,4.70
2022-11-28T10:29:27.183Z,4.79
2022-11-28T10:32:16.832Z,4.75
2022-11-28T10:38:00.356Z,4.62
2022-11-28T10:41:06.965Z,4.62
2022-11-28T10:44:02.784Z,4.64
2022-11-28T10:46:53.934Z,4.67
2022-11-28T10:49:49.398Z,4.81
2022-11-28T10:52:32.511Z,4.72
2022-11-28T10:55:20.444Z,4.83
2022-11-28T10:58:15.833Z,4.80
2022-11-28T11:00:48.427Z,4.87
2022-11-28T11:03:34.021Z,4.89
2022-11-28T11:06:06.882Z,5.02
2022-11-28T11:08:48.326Z,5.07
2022-11-28T11:11:41.147Z,4.78
2022-11-28T11:14:13.422Z,4.90
2022-11-28T11:16:56.367Z,4.95
2022-11-28T11:22:41.690Z,4.84
2022-11-28T11:25:30.567Z,4.99
2022-11-28T11:28:06.265Z,4.89
2022-11-28T11:30:51.588Z,4.98
2022-11-28T11:33:23.597Z,4.72
2022-11-28T11:36:03.873Z,4.90
2022-11-28T11:38:38.096Z,4.94
2022-11-28T11:41:35.977Z,4.85
2022-11-28T11:44:19.740Z,4.99
2022-11-28T11:47:11.681Z,5.01
2022-11-28T11:50:20.843Z,5.02
2022-11-28T11:53:21.661Z,4.92
2022-11-28T11:56:01.661Z,5.20
2022-11-28T12:01:53.998Z,5.12
2022-11-28T12:05:29.426Z,5.05
2022-11-28T12:08:57.898Z,5.23
2022-11-28T12:11:47.944Z,5.13
2022-11-28T12:14:53.495Z,5.23
2022-11-28T12:17:55.795Z,5.16
2022-11-28T12:20:48.948Z,5.21
2022-11-28T12:23:44.076Z,5.10
2022-11-28T12:26:26.046Z,5.38
2022-11-28T12:29:14.684Z,5.28
2022-11-28T12:32:16.585Z,4.85
2022-11-28T12:35:19.538Z,4.99
2022-11-28T12:38:21.060Z,5.10
2022-11-28T12:41:05.946Z,4.97
2022-11-28T12:43:36.186Z,5.07
2022-11-28T12:46:23.429Z,5.31
2022-11-28T12:49:17.575Z,5.13
2022-11-28T12:52:17.293Z,5.07
2022-11-28T12:55:18.445Z,5.12
2022-11-28T12:57:50.715Z,5.14
2022-11-28T13:00:24.312Z,5.12
2022-11-28T13:03:19.482Z,5.07
2022-11-28T13:06:07.717Z,5.12
2022-11-28T13:09:02.893Z,4.91
2022-11-28T13:11:52.821Z,4.91
2022-11-28T13:14:32.999Z,5.10
2022-11-28T13:17:50.904Z,5.13
2022-11-28T13:20:49.219Z,5.11
2022-11-28T13:23:33.783Z,4.89
2022-11-28T13:26:22.958Z,5.16
2022-11-28T13:29:05.554Z,5.14
2022-11-28T13:32:19.466Z,5.25
2022-11-28T13:34:50.571Z,5.21
2022-11-28T13:40:44.217Z,5.11
2022-11-28T13:43:33.239Z,5.12
2022-11-28T13:46:10.441Z,5.08
2022-11-28T13:51:34.610Z,5.04
2022-11-28T13:54:17.384Z,4.91
2022-11-28T13:57:07.767Z,5.05
2022-11-28T14:00:22.995Z,4.90
2022-11-28T14:02:59.474Z,5.00
2022-11-28T14:05:38.166Z,5.04
2022-11-28T14:08:06.779Z,5.07
2022-11-28T14:11:05.632Z,4.74
2022-11-28T14:14:09.385Z,4.85
2022-11-28T14:17:15.755Z,4.88
2022-11-28T14:20:02.140Z,4.83
2022-11-28T14:22:54.166Z,4.87
2022-11-28T14:25:31.879Z,4.90
2022-11-28T14:28:05.830Z,4.87
2022-11-28T14:30:38.152Z,4.79
2022-11-28T14:33:32.015Z,4.81
2022-11-28T14:36:21.452Z,4.96
2022-11-28T14:39:05.704Z,4.96
2022-11-28T14:41:55.614Z,5.06
2022-11-28T14:44:44.802Z,5.06
2022-11-28T14:47:29.329Z,5.09
2022-11-28T14:50:05.496Z,4.99
2022-11-28T14:52:41.173Z,5.10
2022-11-28T14:55:11.243Z,5.15
2022-11-28T14:57:54.114Z,5.11
2022-11-28T15:00:48.377Z,5.13
2022-11-28T15:04:17.064Z,5.23
2022-11-28T15:06:44.707Z,5.19
2022-11-28T15:09:22.852Z,5.18
2022-11-28T15:12:07.766Z,5.22
2022-11-28T15:14:41.722Z,5.16
2022-11-28T15:17:20.229Z,5.19
2022-11-28T15:19:56.761Z,5.34
2022-11-28T15:22:42.249Z,5.32
2022-11-28T15:25:31.143Z,5.13
2022-11-28T15:28:21.834Z,5.32
2022-11-28T15:30:53.240Z,5.06
2022-11-28T15:33:25.923Z,5.05
2022-11-28T15:36:10.273Z,5.14
2022-11-28T15:38:41.736Z,5.14
2022-11-28T15:41:09.645Z,5.13
2022-11-28T15:43:46.261Z,5.12
2022-11-28T15:46:39.970Z,5.17
2022-11-28T15:49:32.564Z,5.05
2022-11-28T15:52:04.600Z,5.24
2022-11-28T15:54:42.339Z,5.05
2022-11-28T15:57:22.380Z,5.83
2022-11-28T16:00:01.225Z,5.43
2022-11-28T16:02:32.751Z,5.22
2022-11-28T16:05:14.140Z,5.01
2022-11-28T16:07:48.821Z,6.65
2022-11-28T16:10:32.560Z,5.45
2022-11-28T16:13:14.124Z,5.18
2022-11-28T16:15:49.887Z,5.14
2022-11-28T16:18:18.568Z,5.10
2022-11-28T16:20:49.166Z,5.12
2022-11-28T16:23:26.171Z,4.94
2022-11-28T16:26:04.585Z,4.91
2022-11-28T16:28:39.619Z,4.93
2022-11-28T16:31:20.485Z,4.78
2022-11-28T16:33:50.358Z,4.66
2022-11-28T16:36:31.771Z,4.81
2022-11-28T16:39:17.087Z,4.96
2022-11-28T16:42:07.361Z,4.78
2022-11-28T16:44:35.156Z,4.82
2022-11-28T16:47:02.750Z,4.87
2022-11-28T16:49:33.040Z,4.83
2022-11-28T16:52:39.293Z,4.95
2022-11-28T16:55:28.730Z,5.00
2022-11-28T16:58:15.991Z,5.01
2022-11-28T17:00:47.172Z,4.82
2022-11-28T17:03:44.089Z,4.90
2022-11-28T17:06:16.766Z,5.06
2022-11-28T17:08:47.381Z,5.03
2022-11-28T17:11:31.023Z,4.95
2022-11-28T17:14:06.282Z,4.75
2022-11-28T17:16:42.804Z,4.69
2022-11-28T17:19:15.202Z,4.69
2022-11-28T17:21:53.667Z,4.64
2022-11-28T17:24:37.562Z,4.72
2022-11-28T17:27:14.501Z,4.88
2022-11-28T17:29:47.277Z,4.67
2022-11-28T17:32:20.900Z,4.66
2022-11-28T17:34:53.891Z,4.64
2022-11-28T17:37:21.074Z,4.68
2022-11-28T17:39:48.666Z,4.72
2022-11-28T17:42:19.169Z,4.61
2022-11-28T17:44:50.162Z,4.59
2022-11-28T17:47:17.790Z,4.69
2022-11-28T17:49:51.253Z,4.61
2022-11-28T17:52:24.713Z,4.65
2022-11-28T17:54:54.951Z,4.66
2022-11-28T17:57:24.765Z,4.74
2022-11-28T18:00:00.516Z,4.59
2022-11-28T18:02:33.780Z,4.59
2022-11-28T18:05:04.276Z,4.67
2022-11-28T18:07:36.132Z,4.68
2022-11-28T18:10:11.774Z,4.68
2022-11-28T18:12:39.689Z,4.73
2022-11-28T18:15:09.887Z,4.82
2022-11-28T18:17:39.722Z,4.97
2022-11-28T18:20:10.734Z,4.71
2022-11-28T18:22:43.443Z,4.78
2022-11-28T18:25:13.470Z,4.83
2022-11-28T18:27:49.282Z,4.80
2022-11-28T18:30:22.378Z,4.82
2022-11-28T18:32:53.991Z,4.79
2022-11-28T18:35:21.451Z,4.74
2022-11-28T18:37:48.635Z,4.70
2022-11-28T18:40:25.110Z,4.53
2022-11-28T18:42:57.898Z,4.84
2022-11-28T18:45:29.038Z,4.70
2022-11-28T18:48:02.442Z,4.67
2022-11-28T18:50:35.480Z,4.64
2022-11-28T18:53:06.061Z,4.53
2022-11-28T18:55:37.089Z,4.49
2022-11-28T18:58:11.414Z,4.56
2022-11-28T19:00:39.690Z,4.68
2022-11-28T19:03:19.761Z,4.43
2022-11-28T19:05:53.126Z,6.65
2022-11-28T19:08:23.540Z,5.93
2022-11-28T19:10:53.949Z,6.90
2022-11-28T19:13:30.930Z,7.64
2022-11-28T19:16:07.937Z,6.76
2022-11-28T19:18:40.721Z,6.27
2022-11-28T19:21:25.457Z,5.31
2022-11-28T19:24:03.614Z,5.10
2022-11-28T19:26:32.288Z,4.95
2022-11-28T19:29:01.013Z,4.75
2022-11-28T19:31:31.220Z,4.59
2022-11-28T19:34:07.211Z,6.50
2022-11-28T19:36:43.231Z,6.50
2022-11-28T19:39:36.608Z,5.20
2022-11-28T19:42:13.126Z,4.72
2022-11-28T19:44:54.116Z,4.82
2022-11-28T19:47:25.168Z,4.85
2022-11-28T19:49:56.624Z,4.73
2022-11-28T19:52:30.174Z,4.74
2022-11-28T19:55:07.316Z,4.59
2022-11-28T19:57:43.655Z,4.59
2022-11-28T20:00:18.315Z,4.59
2022-11-28T20:02:48.772Z,4.56
2022-11-28T20:05:21.861Z,4.51
2022-11-28T20:07:58.184Z,4.62
2022-11-28T20:10:30.068Z,4.48
2022-11-28T20:13:03.085Z,4.72
2022-11-28T20:15:40.474Z,4.41
2022-11-28T20:18:08.321Z,4.56
2022-11-28T20:20:42.165Z,4.40
2022-11-28T20:23:15.884Z,4.25
2022-11-28T20:25:44.173Z,4.30
2022-11-28T20:28:20.246Z,4.56
2022-11-28T20:30:51.103Z,4.27
2022-11-28T20:33:25.256Z,4.35
2022-11-28T20:36:03.833Z,4.34
2022-11-28T20:38:40.934Z,4.48
2022-11-28T20:41:10.346Z,4.51
2022-11-28T20:43:47.782Z,4.31
2022-11-28T20:46:26.082Z,4.35
2022-11-28T20:48:58.053Z,4.43
2022-11-28T20:51:30.539Z,4.14
2022-11-28T20:53:59.356Z,4.29
2022-11-28T20:56:30.351Z,4.41
2022-11-28T20:59:02.079Z,4.30
2022-11-28T21:01:35.554Z,4.25
2022-11-28T21:04:14.285Z,3.98
2022-11-28T21:06:42.684Z,4.21
2022-11-28T21:09:13.346Z,4.18
2022-11-28T21:11:56.678Z,4.15
2022-11-28T21:14:26.867Z,4.20
2022-11-28T21:17:00.851Z,4.29
2022-11-28T21:19:34.110Z,4.14
2022-11-28T21:22:07.835Z,3.78
2022-11-28T21:24:39.073Z,3.91
2022-11-28T21:27:09.717Z,3.91
2022-11-28T21:29:43.648Z,3.90
2022-11-28T21:32:12.372Z,4.02
2022-11-28T21:34:45.430Z,4.11
2022-11-28T21:37:18.238Z,3.86
2022-11-28T21:39:48.445Z,3.79
2022-11-28T21:42:20.913Z,3.74
2022-11-28T21:44:51.586Z,3.64
2022-11-28T21:47:20.063Z,3.75
2022-11-28T21:49:53.372Z,3.89
2022-11-28T21:52:24.052Z,3.90
2022-11-28T21:54:54.486Z,3.80
2022-11-28T21:57:24.712Z,3.94
2022-11-28T21:59:54.715Z,3.87
2022-11-28T22:02:30.834Z,3.55
2022-11-28T22:05:02.072Z,3.57
2022-11-28T22:07:29.181Z,3.91
2022-11-28T22:10:03.316Z,3.68
2022-11-28T22:12:35.847Z,3.68
2022-11-28T22:15:05.843Z,3.65
2022-11-28T22:17:36.910Z,3.68
2022-11-28T22:20:11.729Z,3.67
2022-11-28T22:22:47.607Z,3.39
2022-11-28T22:25:18.221Z,3.30
2022-11-28T22:27:45.270Z,3.33
2022-11-28T22:30:18.518Z,3.13
2022-11-28T22:32:45.676Z,3.26
2022-11-28T22:35:18.699Z,3.15
2022-11-28T22:37:53.106Z,3.32
2022-11-28T22:40:20.756Z,3.27
2022-11-28T22:42:48.251Z,3.22
2022-11-28T22:45:15.389Z,2.95
2022-11-28T22:47:45.249Z,3.28
2022-11-28T22:50:21.725Z,3.24
2022-11-28T22:52:54.319Z,3.28
2022-11-28T22:55:24.593Z,3.10
2022-11-28T22:57:58.927Z,3.01
2022-11-28T23:00:29.261Z,3.14
2022-11-28T23:03:00.178Z,3.11
2022-11-28T23:05:30.836Z,3.23
2022-11-28T23:08:01.519Z,3.18
2022-11-28T23:10:31.368Z,3.21
2022-11-28T23:12:58.856Z,3.17
2022-11-28T23:15:28.837Z,3.21
2022-11-28T23:17:59.783Z,3.11
2022-11-28T23:20:30.592Z,3.18
2022-11-28T23:23:07.234Z,2.99
2022-11-28T23:25:39.246Z,3.11
2022-11-28T23:28:09.903Z,3.28
2022-11-28T23:30:37.244Z,3.17
2022-11-28T23:33:10.542Z,3.25
2022-11-28T23:35:41.286Z,3.19
2022-11-28T23:38:11.145Z,3.07
2022-11-28T23:40:41.420Z,2.92
2022-11-28T23:43:11.901Z,3.00
2022-11-28T23:45:39.913Z,3.09
2022-11-28T23:48:16.196Z,3.14
2022-11-28T23:50:43.920Z,3.11
2022-11-28T23:53:18.044Z,3.18
2022-11-28T23:55:51.000Z,3.34
2022-11-28T23:58:26.527Z,3.36
